createdAt,value
2018-10-21T00:02:36.377Z,22.97
2018-10-21T00:06:01.428Z,22.37
2018-10-21T00:09:26.225Z,23.20
2018-10-21T00:12:51.030Z,22.63
2018-10-21T00:16:15.738Z,23.03
2018-10-21T00:19:40.552Z,22.47
2018-10-21T00:23:05.356Z,22.57
2018-10-21T00:26:30.062Z,22.97
2018-10-21T00:29:54.842Z,23.73
2018-10-21T00:33:19.553Z,22.43
2018-10-21T00:36:44.320Z,21.93
2018-10-21T00:40:09.110Z,22.83
2018-10-21T00:43:33.941Z,21.77
2018-10-21T00:46:58.702Z,21.03
2018-10-21T00:50:23.409Z,21.63
2018-10-21T00:53:48.119Z,18.80
2018-10-21T00:57:12.914Z,22.17
2018-10-21T01:00:37.583Z,22.87
2018-10-21T01:04:02.357Z,22.93
2018-10-21T01:07:27.066Z,22.63
2018-10-21T01:10:51.795Z,22.67
2018-10-21T01:14:16.526Z,23.73
2018-10-21T01:17:41.330Z,22.60
2018-10-21T01:21:06.539Z,21.77
2018-10-21T01:24:31.238Z,21.67
2018-10-21T01:27:56.001Z,21.10
2018-10-21T01:31:20.765Z,22.33
2018-10-21T01:34:45.679Z,21.20
2018-10-21T01:38:10.440Z,21.13
2018-10-21T01:41:35.138Z,21.67
2018-10-21T01:44:59.868Z,21.30
2018-10-21T01:48:25.815Z,20.30
2018-10-21T01:51:50.516Z,20.50
2018-10-21T01:55:15.211Z,20.17
2018-10-21T01:58:39.917Z,20.30
2018-10-21T02:02:04.698Z,20.13
2018-10-21T02:05:29.826Z,21.53
2018-10-21T02:08:54.603Z,19.67
2018-10-21T02:12:19.378Z,20.03
2018-10-21T02:15:44.130Z,20.50
2018-10-21T02:19:08.966Z,19.40
2018-10-21T02:22:33.671Z,19.83
2018-10-21T02:25:58.419Z,19.87
2018-10-21T02:29:23.157Z,19.40
2018-10-21T02:32:48.871Z,18.67
2018-10-21T02:36:13.602Z,18.70
2018-10-21T02:39:38.323Z,19.13
2018-10-21T02:43:03.026Z,19.37
2018-10-21T02:46:28.073Z,18.40
2018-10-21T02:49:52.886Z,19.27
2018-10-21T02:53:17.669Z,17.47
2018-10-21T02:56:42.414Z,19.13
2018-10-21T03:00:07.232Z,17.27
2018-10-21T03:03:32.055Z,19.50
2018-10-21T03:06:56.874Z,17.10
2018-10-21T03:10:21.588Z,17.30
2018-10-21T03:13:46.425Z,18.90
2018-10-21T03:17:11.216Z,17.73
2018-10-21T03:20:36.009Z,17.43
2018-10-21T03:24:00.789Z,18.43
2018-10-21T03:27:25.533Z,16.83
2018-10-21T03:30:50.305Z,18.60
2018-10-21T03:34:15.044Z,16.67
2018-10-21T03:37:39.810Z,17.77
2018-10-21T03:41:04.590Z,18.50
2018-10-21T03:44:29.326Z,17.20
2018-10-21T03:47:54.104Z,18.27
2018-10-21T03:51:18.825Z,17.20
2018-10-21T03:54:47.831Z,16.27
2018-10-21T03:58:12.676Z,18.07
2018-10-21T04:01:37.404Z,16.63
2018-10-21T04:05:02.161Z,16.53
2018-10-21T04:08:26.903Z,16.50
2018-10-21T04:11:51.665Z,17.37
2018-10-21T04:15:16.412Z,17.43
2018-10-21T04:18:41.237Z,18.03
2018-10-21T04:22:06.084Z,18.17
2018-10-21T04:25:31.967Z,17.83
2018-10-21T04:28:56.738Z,17.80
2018-10-21T04:32:21.472Z,18.43
2018-10-21T04:35:46.153Z,19.23
2018-10-21T04:39:27.583Z,18.70
2018-10-21T04:42:52.267Z,18.93
2018-10-21T04:46:17.065Z,19.10
2018-10-21T04:49:41.768Z,18.93
2018-10-21T04:53:06.659Z,18.20
2018-10-21T04:56:31.368Z,17.80
2018-10-21T04:59:56.098Z,19.17
2018-10-21T05:03:20.851Z,18.90
2018-10-21T05:06:45.558Z,16.93
2018-10-21T05:10:25.849Z,18.47
2018-10-21T05:13:50.559Z,16.73
2018-10-21T05:17:15.306Z,17.90
2018-10-21T05:20:39.999Z,17.33
2018-10-21T05:24:04.852Z,19.00
2018-10-21T05:27:29.566Z,18.63
2018-10-21T05:30:54.333Z,19.33
2018-10-21T05:34:19.057Z,19.53
2018-10-21T05:37:43.817Z,19.00
2018-10-21T05:41:08.593Z,19.87
2018-10-21T05:44:33.311Z,19.40
2018-10-21T05:47:58.074Z,18.17
2018-10-21T05:51:22.774Z,20.20
2018-10-21T05:54:47.520Z,19.00
2018-10-21T05:58:12.269Z,19.23
2018-10-21T06:01:37.147Z,18.83
2018-10-21T06:05:01.935Z,19.87
2018-10-21T06:08:26.710Z,19.97
2018-10-21T06:11:51.451Z,19.63
2018-10-21T06:15:16.239Z,19.43
2018-10-21T06:18:41.065Z,20.50
2018-10-21T06:22:05.820Z,19.20
2018-10-21T06:25:30.591Z,18.90
2018-10-21T06:28:55.378Z,19.83
2018-10-21T06:32:20.159Z,24.27
2018-10-21T06:35:44.925Z,23.70
2018-10-21T06:39:10.327Z,22.77
2018-10-21T06:42:35.005Z,23.27
2018-10-21T06:45:59.765Z,22.30
2018-10-21T06:49:24.502Z,25.17
2018-10-21T06:52:49.632Z,22.57
2018-10-21T06:56:14.347Z,22.53
2018-10-21T06:59:39.114Z,22.83
2018-10-21T07:03:03.845Z,22.33
2018-10-21T07:06:29.552Z,22.67
2018-10-21T07:09:54.344Z,21.90
2018-10-21T07:13:19.237Z,25.43
2018-10-21T07:16:44.076Z,28.10
2018-10-21T07:20:09.272Z,27.43
2018-10-21T07:23:33.986Z,27.97
2018-10-21T07:26:58.813Z,28.03
2018-10-21T07:30:23.587Z,27.53
2018-10-21T07:33:48.324Z,26.93
2018-10-21T07:37:13.059Z,27.47
2018-10-21T07:40:37.754Z,31.73
2018-10-21T07:44:02.547Z,30.53
2018-10-21T07:47:27.297Z,32.93
2018-10-21T07:50:52.039Z,31.53
2018-10-21T07:54:16.794Z,32.13
2018-10-21T07:57:41.502Z,32.23
2018-10-21T08:01:06.315Z,31.00
2018-10-21T08:04:31.123Z,28.90
2018-10-21T08:08:11.782Z,29.80
2018-10-21T08:11:36.513Z,25.77
2018-10-21T08:15:01.350Z,29.03
2018-10-21T08:18:26.229Z,25.83
2018-10-21T08:21:51.025Z,29.03
2018-10-21T08:25:15.745Z,26.80
2018-10-21T08:28:40.540Z,29.10
2018-10-21T08:32:05.585Z,27.27
2018-10-21T08:35:30.347Z,30.03
2018-10-21T08:38:55.125Z,28.70
2018-10-21T08:42:19.857Z,28.60
2018-10-21T08:45:44.643Z,27.80
2018-10-21T08:49:09.413Z,29.20
2018-10-21T08:52:34.090Z,27.67
2018-10-21T08:55:58.971Z,29.77
2018-10-21T08:59:23.691Z,26.87
2018-10-21T09:02:48.577Z,25.00
2018-10-21T09:06:13.372Z,24.87
2018-10-21T09:09:38.289Z,26.60
2018-10-21T09:13:03.064Z,24.73
2018-10-21T09:16:27.799Z,23.12
2018-10-21T09:19:52.549Z,22.17
2018-10-21T09:23:17.326Z,20.85
2018-10-21T09:26:42.121Z,20.68
2018-10-21T09:30:08.700Z,19.85
2018-10-21T09:33:33.475Z,17.10
2018-10-21T09:36:58.273Z,20.43
2018-10-21T09:40:23.053Z,17.80
2018-10-21T09:43:47.745Z,17.98
2018-10-21T09:47:12.528Z,17.57
2018-10-21T09:50:37.285Z,15.05
2018-10-21T09:54:01.989Z,15.55
2018-10-21T09:57:26.770Z,16.17
2018-10-21T10:00:56.798Z,16.52
2018-10-21T10:04:21.524Z,14.00
2018-10-21T10:07:46.343Z,14.55
2018-10-21T10:11:11.099Z,12.90
2018-10-21T10:14:35.829Z,16.15
2018-10-21T10:18:00.686Z,13.32
2018-10-21T10:21:25.483Z,14.40
2018-10-21T10:24:50.432Z,12.07
2018-10-21T10:28:15.319Z,12.82
2018-10-21T10:31:39.959Z,12.23
2018-10-21T10:35:04.859Z,14.93
2018-10-21T10:38:29.681Z,11.57
2018-10-21T10:41:54.472Z,14.38
2018-10-21T10:45:19.276Z,13.28
2018-10-21T10:48:43.987Z,13.00
2018-10-21T10:52:08.727Z,14.38
2018-10-21T10:55:38.603Z,13.00
2018-10-21T10:59:03.385Z,15.10
2018-10-21T11:02:28.118Z,13.80
2018-10-21T11:05:52.871Z,10.88
2018-10-21T11:09:17.660Z,12.13
2018-10-21T11:12:42.435Z,11.05
2018-10-21T11:16:07.932Z,11.50
2018-10-21T11:19:32.689Z,13.83
2018-10-21T11:22:57.611Z,12.47
2018-10-21T11:26:22.303Z,13.65
2018-10-21T11:29:48.365Z,12.80
2018-10-21T11:33:13.142Z,10.38
2018-10-21T11:36:37.857Z,9.45
2018-10-21T11:40:02.663Z,10.38
2018-10-21T11:43:27.401Z,8.40
2018-10-21T11:46:52.337Z,9.33
2018-10-21T11:50:17.079Z,7.72
2018-10-21T11:53:41.780Z,7.30
2018-10-21T11:57:07.385Z,9.68
2018-10-21T12:00:32.191Z,10.85
2018-10-21T12:03:56.923Z,10.48
2018-10-21T12:07:21.648Z,7.78
2018-10-21T12:10:46.376Z,6.72
2018-10-21T12:14:11.584Z,8.25
2018-10-21T12:17:36.334Z,6.95
2018-10-21T12:21:01.095Z,6.60
2018-10-21T12:24:25.810Z,5.85
2018-10-21T12:27:50.591Z,6.25
2018-10-21T12:31:15.395Z,6.42
2018-10-21T12:34:40.163Z,6.70
2018-10-21T12:38:05.009Z,6.78
2018-10-21T12:41:30.621Z,7.58
2018-10-21T12:44:55.389Z,5.35
2018-10-21T12:48:20.119Z,5.75
2018-10-21T12:51:45.004Z,4.08
2018-10-21T12:55:10.694Z,3.77
2018-10-21T12:58:35.409Z,3.75
2018-10-21T13:02:00.110Z,4.42
2018-10-21T13:05:24.762Z,3.37
2018-10-21T13:08:49.545Z,2.80
2018-10-21T13:12:14.312Z,3.70
2018-10-21T13:15:39.127Z,4.08
2018-10-21T13:19:04.721Z,3.77
2018-10-21T13:22:29.353Z,3.77
2018-10-21T13:25:54.109Z,3.72
2018-10-21T13:29:18.816Z,3.85
2018-10-21T13:32:43.523Z,5.15
2018-10-21T13:36:08.388Z,4.72
2018-10-21T13:39:33.110Z,4.60
2018-10-21T13:42:57.869Z,3.40
2018-10-21T13:46:22.741Z,4.42
2018-10-21T13:49:47.421Z,4.67
2018-10-21T13:53:12.300Z,5.50
2018-10-21T13:56:36.947Z,4.55
2018-10-21T14:00:01.663Z,5.00
2018-10-21T14:03:26.372Z,4.47
2018-10-21T14:06:51.130Z,5.53
2018-10-21T14:10:15.934Z,6.33
2018-10-21T14:13:40.686Z,5.20
2018-10-21T14:17:05.488Z,4.92
2018-10-21T14:20:30.272Z,5.30
2018-10-21T14:23:55.031Z,3.80
2018-10-21T14:27:19.739Z,4.17
2018-10-21T14:30:44.497Z,4.55
2018-10-21T14:34:09.304Z,4.60
2018-10-21T14:37:34.057Z,5.17
2018-10-21T14:40:58.748Z,4.60
2018-10-21T14:44:23.428Z,4.05
2018-10-21T14:47:48.129Z,4.25
2018-10-21T14:51:12.874Z,4.55
2018-10-21T14:54:37.533Z,3.80
2018-10-21T14:58:02.246Z,4.53
2018-10-21T15:01:27.052Z,4.05
2018-10-21T15:04:51.807Z,4.50
2018-10-21T15:08:16.634Z,3.67
2018-10-21T15:11:41.627Z,3.50
2018-10-21T15:15:07.419Z,4.62
2018-10-21T15:18:32.145Z,4.87
2018-10-21T15:21:56.933Z,4.60
2018-10-21T15:25:21.628Z,4.87
2018-10-21T15:28:46.368Z,3.33
2018-10-21T15:32:11.140Z,4.12
2018-10-21T15:35:35.859Z,3.65
2018-10-21T15:39:00.585Z,3.50
2018-10-21T15:42:25.453Z,3.80
2018-10-21T15:45:50.226Z,3.95
2018-10-21T15:49:14.912Z,3.12
2018-10-21T15:52:39.622Z,3.90
2018-10-21T15:56:04.528Z,3.58
2018-10-21T15:59:29.257Z,4.47
2018-10-21T16:02:53.992Z,3.67
2018-10-21T16:06:18.736Z,3.87
2018-10-21T16:09:43.382Z,4.08
2018-10-21T16:13:09.873Z,3.52
2018-10-21T16:16:34.656Z,3.58
2018-10-21T16:19:59.425Z,3.83
2018-10-21T16:23:24.117Z,3.37
2018-10-21T16:26:48.887Z,4.55
2018-10-21T16:30:14.905Z,4.05
2018-10-21T16:33:39.699Z,4.33
2018-10-21T16:37:04.428Z,4.10
2018-10-21T16:40:29.169Z,3.98
2018-10-21T16:43:53.945Z,3.58
2018-10-21T16:47:18.684Z,4.25
2018-10-21T16:50:43.426Z,4.97
2018-10-21T16:54:08.298Z,5.40
2018-10-21T16:57:33.042Z,4.37
2018-10-21T17:00:57.953Z,4.58
2018-10-21T17:04:22.530Z,5.55
2018-10-21T17:07:47.322Z,5.40
2018-10-21T17:11:12.138Z,5.47
2018-10-21T17:14:36.764Z,6.75
2018-10-21T17:18:01.521Z,6.30
2018-10-21T17:21:26.231Z,5.75
2018-10-21T17:24:51.278Z,5.78
2018-10-21T17:28:16.093Z,6.25
2018-10-21T17:31:40.783Z,9.73
2018-10-21T17:35:06.718Z,10.25
2018-10-21T17:38:31.425Z,12.10
2018-10-21T17:41:56.240Z,10.80
2018-10-21T17:45:20.999Z,9.97
2018-10-21T17:48:45.768Z,8.60
2018-10-21T17:52:10.677Z,8.75
2018-10-21T17:55:35.339Z,8.75
2018-10-21T17:59:00.219Z,9.03
2018-10-21T18:02:24.983Z,8.10
2018-10-21T18:05:49.729Z,7.97
2018-10-21T18:09:14.860Z,7.83
2018-10-21T18:12:39.603Z,8.03
2018-10-21T18:16:04.916Z,8.07
2018-10-21T18:19:29.633Z,8.23
2018-10-21T18:22:54.388Z,8.70
2018-10-21T18:26:19.100Z,8.57
2018-10-21T18:29:43.848Z,8.47
2018-10-21T18:33:08.700Z,9.27
2018-10-21T18:36:33.301Z,9.77
2018-10-21T18:39:58.125Z,9.87
2018-10-21T18:43:22.869Z,10.50
2018-10-21T18:46:47.631Z,10.47
2018-10-21T18:50:14.198Z,11.50
2018-10-21T18:53:38.969Z,13.43
2018-10-21T18:57:03.716Z,15.53
2018-10-21T19:00:28.447Z,13.50
2018-10-21T19:03:53.175Z,13.30
2018-10-21T19:07:17.944Z,15.40
2018-10-21T19:10:42.752Z,14.37
2018-10-21T19:14:07.886Z,15.30
2018-10-21T19:17:32.571Z,16.07
2018-10-21T19:20:57.338Z,15.23
2018-10-21T19:24:22.079Z,15.10
2018-10-21T19:27:47.285Z,15.17
2018-10-21T19:31:12.058Z,14.93
2018-10-21T19:34:36.826Z,14.13
2018-10-21T19:38:01.563Z,12.73
2018-10-21T19:41:26.269Z,14.93
2018-10-21T19:44:51.142Z,13.50
2018-10-21T19:48:15.993Z,14.10
2018-10-21T19:51:41.863Z,12.37
2018-10-21T19:55:07.329Z,12.90
2018-10-21T19:58:32.435Z,12.27
2018-10-21T20:01:57.291Z,13.13
2018-10-21T20:05:22.458Z,12.77
2018-10-21T20:08:47.367Z,13.40
2018-10-21T20:12:12.208Z,14.77
2018-10-21T20:15:37.043Z,13.33
2018-10-21T20:19:01.839Z,13.83
2018-10-21T20:22:26.680Z,13.57
2018-10-21T20:25:51.680Z,14.07
2018-10-21T20:29:16.572Z,15.53
2018-10-21T20:32:41.782Z,15.27
2018-10-21T20:36:06.654Z,13.63
2018-10-21T20:39:32.037Z,14.40
2018-10-21T20:42:56.910Z,15.27
2018-10-21T20:46:21.767Z,13.13
2018-10-21T20:49:47.012Z,13.33
2018-10-21T20:53:11.833Z,14.93
2018-10-21T20:56:36.764Z,13.67
2018-10-21T21:00:01.755Z,14.63
2018-10-21T21:03:26.772Z,13.67
2018-10-21T21:06:51.734Z,12.73
2018-10-21T21:10:16.661Z,13.80
2018-10-21T21:13:41.976Z,14.47
2018-10-21T21:17:06.924Z,14.20
2018-10-21T21:20:31.906Z,13.80
2018-10-21T21:23:56.823Z,14.30
2018-10-21T21:27:22.115Z,14.03
2018-10-21T21:30:47.881Z,13.87
2018-10-21T21:34:12.803Z,13.30
2018-10-21T21:37:37.902Z,14.73
2018-10-21T21:41:02.903Z,14.63
2018-10-21T21:44:27.741Z,12.93
2018-10-21T21:47:52.581Z,13.80
2018-10-21T21:51:17.478Z,13.07
2018-10-21T21:54:42.248Z,13.40
2018-10-21T21:58:07.301Z,13.03
2018-10-21T22:01:32.088Z,12.27
2018-10-21T22:04:57.017Z,13.93
2018-10-21T22:08:21.766Z,13.53
2018-10-21T22:11:46.535Z,12.40
2018-10-21T22:15:11.326Z,12.67
2018-10-21T22:18:36.048Z,13.23
2018-10-21T22:22:00.863Z,13.67
2018-10-21T22:25:25.600Z,13.63
2018-10-21T22:28:50.344Z,12.43
2018-10-21T22:32:15.100Z,14.03
2018-10-21T22:35:39.838Z,12.23
2018-10-21T22:39:05.884Z,13.17
2018-10-21T22:42:30.761Z,12.03
2018-10-21T22:45:55.475Z,12.67
2018-10-21T22:49:20.182Z,12.60
2018-10-21T22:52:44.897Z,15.40
2018-10-21T22:56:09.706Z,12.43
2018-10-21T22:59:34.460Z,12.13
2018-10-21T23:02:59.214Z,11.00
2018-10-21T23:06:23.972Z,10.93
2018-10-21T23:09:48.725Z,11.00
2018-10-21T23:13:13.461Z,10.63
2018-10-21T23:16:38.231Z,10.57
2018-10-21T23:20:02.985Z,11.53
2018-10-21T23:23:27.788Z,10.70
2018-10-21T23:26:52.619Z,10.63
2018-10-21T23:30:17.467Z,10.87
2018-10-21T23:33:42.116Z,11.10
2018-10-21T23:37:07.077Z,10.20
2018-10-21T23:40:31.815Z,10.70
2018-10-21T23:43:56.541Z,9.73
2018-10-21T23:47:21.307Z,9.83
2018-10-21T23:50:46.050Z,10.67
2018-10-21T23:54:10.978Z,9.30
2018-10-21T23:57:35.671Z,9.53
